createdAt,value
2022-08-12T00:02:45.090Z,100825.47
2022-08-12T00:05:32.009Z,100823.19
2022-08-12T00:08:17.181Z,100817.78
2022-08-12T00:11:14.092Z,100830.53
2022-08-12T00:13:59.369Z,100824.75
2022-08-12T00:16:48.747Z,100821.22
2022-08-12T00:19:34.454Z,100826.38
2022-08-12T00:22:19.976Z,100818.75
2022-08-12T00:25:05.731Z,100827.66
2022-08-12T00:27:51.557Z,100820.28
2022-08-12T00:30:36.860Z,100826.38
2022-08-12T00:33:25.636Z,100828.03
2022-08-12T00:36:35.356Z,100825.78
2022-08-12T00:39:21.927Z,100828.63
2022-08-12T00:42:08.787Z,100819.31
2022-08-12T00:44:35.527Z,100816.75
2022-08-12T00:47:03.469Z,100823.56
2022-08-12T00:49:31.282Z,100825.56
2022-08-12T00:52:06.822Z,100826.84
2022-08-12T00:54:44.394Z,100824.75
2022-08-12T00:57:17.365Z,100830.63
2022-08-12T00:59:50.005Z,100822.97
2022-08-12T01:02:23.668Z,100822.13
2022-08-12T01:05:29.217Z,100820.25
2022-08-12T01:08:15.020Z,100825.19
2022-08-12T01:11:02.190Z,100814.25
2022-08-12T01:13:31.299Z,100813.28
2022-08-12T01:16:01.210Z,100814.72
2022-08-12T01:18:30.167Z,100811.41
2022-08-12T01:21:09.217Z,100815.16
2022-08-12T01:23:45.015Z,100804.34
2022-08-12T01:26:17.156Z,100814.00
2022-08-12T01:28:45.731Z,100816.13
2022-08-12T01:31:16.254Z,100814.72
2022-08-12T01:34:28.642Z,100811.53
2022-08-12T01:37:02.091Z,100810.13
2022-08-12T01:40:34.204Z,100810.13
2022-08-12T01:42:39.843Z,100819.56
2022-08-12T01:45:07.153Z,100812.72
2022-08-12T01:47:58.710Z,100813.41
2022-08-12T01:50:33.242Z,100821.84
2022-08-12T01:53:06.442Z,100808.06
2022-08-12T01:55:35.354Z,100816.44
2022-08-12T01:58:54.348Z,100812.78
2022-08-12T02:01:24.541Z,100804.19
2022-08-12T02:04:33.434Z,100811.69
2022-08-12T02:07:23.027Z,100802.41
2022-08-12T02:10:11.185Z,100807.34
2022-08-12T02:13:48.355Z,100809.00
2022-08-12T02:16:51.159Z,100802.41
2022-08-12T02:19:22.255Z,100800.88
2022-08-12T02:22:25.117Z,100797.50
2022-08-12T02:24:54.188Z,100794.16
2022-08-12T02:27:22.108Z,100800.41
2022-08-12T02:29:49.310Z,100797.25
2022-08-12T02:32:16.797Z,100792.50
2022-08-12T02:34:44.803Z,100795.53
2022-08-12T02:37:15.540Z,100799.16
2022-08-12T02:39:48.458Z,100803.81
2022-08-12T02:42:16.470Z,100803.38
2022-08-12T02:44:45.837Z,100805.28
2022-08-12T02:47:58.468Z,100800.72
2022-08-12T02:50:05.778Z,100803.97
2022-08-12T02:52:34.115Z,100798.03
2022-08-12T02:55:10.635Z,100799.34
2022-08-12T02:57:37.456Z,100800.72
2022-08-12T03:00:06.107Z,100804.56
2022-08-12T03:02:33.615Z,100797.56
2022-08-12T03:05:03.437Z,100802.94
2022-08-12T03:07:56.187Z,100803.47
2022-08-12T03:10:36.650Z,100801.75
2022-08-12T03:13:04.630Z,100804.94
2022-08-12T03:15:31.541Z,100801.34
2022-08-12T03:18:24.891Z,100805.41
2022-08-12T03:20:56.274Z,100803.38
2022-08-12T03:23:30.114Z,100805.28
2022-08-12T03:26:00.666Z,100812.41
2022-08-12T03:28:49.650Z,100810.59
2022-08-12T03:31:22.253Z,100799.19
2022-08-12T03:34:02.020Z,100806.31
2022-08-12T03:36:32.121Z,100804.22
2022-08-12T03:39:18.884Z,100800.47
2022-08-12T03:41:54.886Z,100793.19
2022-08-12T03:44:46.566Z,100795.06
2022-08-12T03:47:49.670Z,100797.38
2022-08-12T03:50:35.954Z,100794.06
2022-08-12T03:53:24.280Z,100790.94
2022-08-12T03:56:10.181Z,100788.63
2022-08-12T03:58:56.145Z,100791.88
2022-08-12T04:01:25.996Z,100792.34
2022-08-12T04:03:52.960Z,100800.84
2022-08-12T04:06:34.414Z,100806.91
2022-08-12T04:09:15.941Z,100802.69
2022-08-12T04:12:03.144Z,100797.09
2022-08-12T04:14:30.168Z,100803.75
2022-08-12T04:16:57.402Z,100804.66
2022-08-12T04:19:26.077Z,100805.13
2022-08-12T04:22:02.429Z,100801.59
2022-08-12T04:24:38.056Z,100798.59
2022-08-12T04:27:11.780Z,100799.69
2022-08-12T04:30:29.148Z,100793.28
2022-08-12T04:32:26.329Z,100786.31
2022-08-12T04:34:53.947Z,100781.97
2022-08-12T04:37:20.755Z,100782.22
2022-08-12T04:39:48.584Z,100775.28
2022-08-12T04:42:16.146Z,100780.22
2022-08-12T04:44:43.330Z,100779.31
2022-08-12T04:47:15.303Z,100774.50
2022-08-12T04:49:45.589Z,100783.22
2022-08-12T04:52:12.821Z,100764.53
2022-08-12T04:54:39.697Z,100771.16
2022-08-12T04:57:09.560Z,100769.50
2022-08-12T04:59:48.467Z,100764.59
2022-08-12T05:02:22.864Z,100765.94
2022-08-12T05:04:51.662Z,100763.31
2022-08-12T05:07:19.432Z,100762.56
2022-08-12T05:10:00.523Z,100763.94
2022-08-12T05:12:37.504Z,100763.66
2022-08-12T05:15:21.243Z,100757.91
2022-08-12T05:17:53.215Z,100761.41
2022-08-12T05:20:20.735Z,100763.59
2022-08-12T05:22:47.494Z,100765.84
2022-08-12T05:25:15.868Z,100762.03
2022-08-12T05:27:58.762Z,100763.59
2022-08-12T05:30:30.882Z,100762.09
2022-08-12T05:33:00.264Z,100764.78
2022-08-12T05:35:28.011Z,100766.88
2022-08-12T05:38:14.770Z,100764.59
2022-08-12T05:40:41.952Z,100759.84
2022-08-12T05:43:08.909Z,100757.66
2022-08-12T05:45:35.643Z,100767.50
2022-08-12T05:48:02.779Z,100765.19
2022-08-12T05:50:29.586Z,100763.41
2022-08-12T05:52:56.301Z,100768.72
2022-08-12T05:55:25.843Z,100770.78
2022-08-12T05:57:55.406Z,100771.88
2022-08-12T06:00:26.189Z,100768.19
2022-08-12T06:03:12.019Z,100772.34
2022-08-12T06:05:52.695Z,100767.31
2022-08-12T06:08:23.097Z,100771.44
2022-08-12T06:10:50.387Z,100767.91
2022-08-12T06:13:28.713Z,100770.72
2022-08-12T06:16:09.858Z,100774.88
2022-08-12T06:18:39.967Z,100764.44
2022-08-12T06:21:12.081Z,100775.59
2022-08-12T06:23:42.638Z,100770.16
2022-08-12T06:26:12.696Z,100770.41
2022-08-12T06:28:40.049Z,100773.47
2022-08-12T06:31:25.375Z,100769.59
2022-08-12T06:33:57.825Z,100775.41
2022-08-12T06:36:29.964Z,100771.09
2022-08-12T06:39:00.308Z,100775.31
2022-08-12T06:42:31.054Z,100771.41
2022-08-12T06:44:32.737Z,100775.69
2022-08-12T06:46:59.801Z,100779.91
2022-08-12T06:49:36.685Z,100777.66
2022-08-12T06:52:04.872Z,100776.69
2022-08-12T06:54:33.222Z,100785.28
2022-08-12T06:57:57.110Z,100790.66
2022-08-12T06:59:47.451Z,100796.56
2022-08-12T07:02:14.135Z,100795.66
2022-08-12T07:04:40.870Z,100792.09
2022-08-12T07:07:08.925Z,100793.19
2022-08-12T07:10:01.194Z,100793.53
2022-08-12T07:12:23.469Z,100793.53
2022-08-12T07:14:53.818Z,100793.16
2022-08-12T07:17:20.445Z,100795.31
2022-08-12T07:20:35.974Z,100799.34
2022-08-12T07:36:12.953Z,100798.81
2022-08-12T07:38:46.531Z,100795.44
2022-08-12T07:41:39.082Z,100803.28
2022-08-12T07:44:08.685Z,100803.19
2022-08-12T07:46:49.542Z,100800.72
2022-08-12T07:49:34.684Z,100799.56
2022-08-12T07:52:21.350Z,100799.38
2022-08-12T07:54:51.304Z,100802.31
2022-08-12T07:57:18.061Z,100809.09
2022-08-12T07:59:44.737Z,100803.34
2022-08-12T08:02:26.355Z,100798.53
2022-08-12T08:04:56.557Z,100799.88
2022-08-12T08:07:25.672Z,100811.69
2022-08-12T08:09:59.898Z,100804.31
2022-08-12T08:12:46.355Z,100804.25
2022-08-12T08:15:14.983Z,100801.34
2022-08-12T08:18:05.974Z,100798.97
2022-08-12T08:20:35.336Z,100795.19
2022-08-12T08:23:08.137Z,100799.78
2022-08-12T08:25:38.862Z,100798.44
2022-08-12T08:28:27.410Z,100793.34
2022-08-12T08:31:05.423Z,100796.13
2022-08-12T08:34:09.140Z,100805.78
2022-08-12T08:36:23.779Z,100792.06
2022-08-12T08:38:57.860Z,100800.56
2022-08-12T08:45:24.430Z,100791.81
2022-08-12T08:47:51.919Z,100795.78
2022-08-12T08:50:18.758Z,100798.06
2022-08-12T08:52:46.000Z,100791.00
2022-08-12T08:55:14.459Z,100794.13
2022-08-12T08:57:47.658Z,100799.16
2022-08-12T09:00:16.904Z,100795.44
2022-08-12T09:02:49.128Z,100786.97
2022-08-12T09:05:26.018Z,100791.78
2022-08-12T09:10:47.286Z,100781.41
2022-08-12T09:13:29.108Z,100778.97
2022-08-12T09:16:20.407Z,100780.25
2022-08-12T09:18:57.371Z,100778.53
2022-08-12T09:21:24.970Z,100771.28
2022-08-12T09:24:06.099Z,100774.59
2022-08-12T09:30:10.418Z,100769.88
2022-08-12T09:32:56.736Z,100775.53
2022-08-12T09:35:42.977Z,100774.78
2022-08-12T09:38:28.970Z,100762.50
2022-08-12T09:42:33.688Z,100762.50
2022-08-12T09:44:39.454Z,100775.28
2022-08-12T09:47:10.531Z,100756.41
2022-08-12T09:49:57.948Z,100765.03
2022-08-12T09:52:32.014Z,100768.81
2022-08-12T09:55:02.455Z,100763.53
2022-08-12T09:58:07.441Z,100759.91
2022-08-12T10:01:02.864Z,100746.34
2022-08-12T10:04:12.124Z,100748.97
2022-08-12T10:06:57.975Z,100744.13
2022-08-12T10:09:57.061Z,100747.56
2022-08-12T10:13:11.673Z,100743.22
2022-08-12T10:16:02.254Z,100734.72
2022-08-12T10:18:26.542Z,100738.03
2022-08-12T10:20:54.317Z,100737.13
2022-08-12T10:23:39.317Z,100739.75
2022-08-12T10:26:38.186Z,100729.47
2022-08-12T10:30:39.036Z,100727.38
2022-08-12T10:33:02.248Z,100738.56
2022-08-12T10:35:15.294Z,100726.13
2022-08-12T10:38:33.460Z,100728.22
2022-08-12T10:40:33.516Z,100721.81
2022-08-12T10:43:19.918Z,100717.94
2022-08-12T10:45:49.534Z,100718.03
2022-08-12T10:48:33.625Z,100712.59
2022-08-12T10:52:02.730Z,100708.53
2022-08-12T10:54:00.404Z,100705.47
2022-08-12T10:59:17.917Z,100704.84
2022-08-12T11:04:31.478Z,100690.69
2022-08-12T11:04:52.680Z,100692.66
2022-08-12T11:08:37.230Z,100695.00
2022-08-12T11:10:18.949Z,100687.06
2022-08-12T11:13:00.655Z,100687.00
2022-08-12T11:16:04.044Z,100683.63
2022-08-12T11:18:18.703Z,100682.72
2022-08-12T11:20:48.262Z,100677.91
2022-08-12T11:23:26.061Z,100686.31
2022-08-12T11:26:05.927Z,100680.97
2022-08-12T11:28:34.420Z,100686.91
2022-08-12T11:31:03.129Z,100677.31
2022-08-12T11:34:05.705Z,100686.00
2022-08-12T11:36:17.457Z,100682.81
2022-08-12T11:38:50.500Z,100680.34
2022-08-12T11:41:31.380Z,100667.28
2022-08-12T11:44:30.760Z,100668.28
2022-08-12T11:46:54.578Z,100665.91
2022-08-12T11:49:31.719Z,100666.59
2022-08-12T11:52:03.481Z,100661.44
2022-08-12T11:54:31.506Z,100667.59
2022-08-12T11:58:40.522Z,100662.63
2022-08-12T12:02:57.657Z,100647.44
2022-08-12T12:05:28.419Z,100646.31
2022-08-12T12:08:38.516Z,100642.84
2022-08-12T12:10:57.736Z,100649.63
2022-08-12T12:14:07.500Z,100648.00
2022-08-12T12:16:21.663Z,100643.13
2022-08-12T12:18:49.190Z,100646.31
2022-08-12T12:21:18.840Z,100639.00
2022-08-12T12:24:06.634Z,100634.22
2022-08-12T12:26:35.473Z,100625.84
2022-08-12T12:29:03.366Z,100624.34
2022-08-12T12:32:09.367Z,100622.50
2022-08-12T12:34:30.423Z,100625.31
2022-08-12T12:36:58.059Z,100618.69
2022-08-12T12:39:27.728Z,100612.25
2022-08-12T12:42:42.800Z,100612.19
2022-08-12T12:44:42.064Z,100615.72
2022-08-12T12:47:29.027Z,100614.31
2022-08-12T12:50:00.102Z,100612.69
2022-08-12T12:52:27.204Z,100620.13
2022-08-12T12:54:55.741Z,100615.78
2022-08-12T12:57:59.467Z,100606.19
2022-08-12T13:00:17.428Z,100605.53
2022-08-12T13:02:53.688Z,100608.28
2022-08-12T13:05:28.047Z,100606.09
2022-08-12T13:08:00.757Z,100609.00
2022-08-12T13:10:36.994Z,100613.91
2022-08-12T13:14:06.885Z,100621.84
2022-08-12T13:15:59.421Z,100605.75
2022-08-12T13:18:28.764Z,100620.97
2022-08-12T13:21:02.969Z,100610.44
2022-08-12T13:23:36.814Z,100610.34
2022-08-12T13:26:04.965Z,100606.06
2022-08-12T13:28:31.810Z,100617.75
2022-08-12T13:31:06.528Z,100606.69
2022-08-12T13:34:31.829Z,100606.25
2022-08-12T13:36:21.835Z,100610.19
2022-08-12T13:38:54.615Z,100606.38
2022-08-12T13:41:33.474Z,100604.19
2022-08-12T13:44:06.677Z,100603.28
2022-08-12T13:46:38.791Z,100609.78
2022-08-12T13:49:11.520Z,100600.63
2022-08-12T13:51:48.306Z,100600.63
2022-08-12T13:54:22.267Z,100599.00
2022-08-12T13:56:49.995Z,100590.91
2022-08-12T13:59:20.388Z,100585.63
2022-08-12T14:01:51.886Z,100588.47
2022-08-12T14:04:19.131Z,100594.53
2022-08-12T14:06:51.367Z,100589.88
2022-08-12T14:09:20.037Z,100594.13
2022-08-12T14:11:58.851Z,100589.75
2022-08-12T14:14:31.525Z,100577.69
2022-08-12T14:17:05.503Z,100572.00
2022-08-12T14:19:35.694Z,100573.16
2022-08-12T14:22:10.320Z,100571.25
2022-08-12T14:24:41.032Z,100569.94
2022-08-12T14:27:10.127Z,100571.22
2022-08-12T14:30:06.252Z,100574.94
2022-08-12T14:32:35.349Z,100570.31
2022-08-12T14:35:09.405Z,100569.94
2022-08-12T14:37:56.444Z,100570.22
2022-08-12T14:40:29.925Z,100566.00
2022-08-12T14:42:58.286Z,100574.94
2022-08-12T14:45:44.389Z,100571.00
2022-08-12T14:48:16.207Z,100562.31
2022-08-12T14:51:03.139Z,100562.06
2022-08-12T14:59:56.945Z,100562.69
2022-08-12T15:02:20.895Z,100558.19
2022-08-12T15:04:54.715Z,100554.78
2022-08-12T15:07:33.167Z,100560.06
2022-08-12T15:10:10.827Z,100557.31
2022-08-12T15:12:40.767Z,100550.03
2022-08-12T15:15:10.266Z,100551.53
2022-08-12T15:17:38.637Z,100549.91
2022-08-12T15:20:31.790Z,100553.81
2022-08-12T15:22:55.619Z,100555.13
2022-08-12T15:25:22.718Z,100554.44
2022-08-12T15:28:03.780Z,100551.53
2022-08-12T15:30:34.100Z,100548.72
2022-08-12T15:33:12.426Z,100550.69
2022-08-12T15:35:51.981Z,100543.25
2022-08-12T15:38:21.232Z,100547.31
2022-08-12T15:40:50.089Z,100544.97
2022-08-12T15:44:16.253Z,100541.72
2022-08-12T15:46:06.333Z,100549.34
2022-08-12T15:48:33.955Z,100546.09
2022-08-12T15:51:06.424Z,100542.75
2022-08-12T15:53:54.861Z,100534.44
2022-08-12T15:56:29.030Z,100554.13
2022-08-12T15:59:00.379Z,100549.06
2022-08-12T16:01:35.141Z,100556.84
2022-08-12T16:04:02.019Z,100548.06
2022-08-12T16:07:00.585Z,100545.78
2022-08-12T16:09:21.307Z,100544.19
2022-08-12T16:11:48.770Z,100545.97
2022-08-12T16:14:18.379Z,100543.59
2022-08-12T16:16:48.489Z,100538.34
2022-08-12T16:20:02.719Z,100545.16
2022-08-12T16:22:07.138Z,100529.09
2022-08-12T16:24:43.589Z,100526.03
2022-08-12T16:27:11.047Z,100532.97
2022-08-12T16:29:52.655Z,100525.66
2022-08-12T16:32:23.137Z,100527.13
2022-08-12T16:34:55.801Z,100527.41
2022-08-12T16:37:33.088Z,100522.25
2022-08-12T16:40:12.950Z,100522.88
2022-08-12T16:42:42.159Z,100522.25
2022-08-12T16:45:22.959Z,100523.53
2022-08-12T16:48:00.594Z,100523.00
2022-08-12T16:50:30.897Z,100518.91
2022-08-12T16:52:59.862Z,100519.84
2022-08-12T16:55:41.808Z,100520.81
2022-08-12T16:58:28.028Z,100512.06
2022-08-12T17:00:56.131Z,100512.16
2022-08-12T17:03:29.162Z,100510.06
2022-08-12T17:05:58.313Z,100508.34
2022-08-12T17:08:28.942Z,100507.72
2022-08-12T17:10:56.380Z,100502.78
2022-08-12T17:13:26.204Z,100504.28
2022-08-12T17:16:04.679Z,100508.66
2022-08-12T17:18:42.524Z,100509.00
2022-08-12T17:21:41.178Z,100504.13
2022-08-12T17:24:05.759Z,100506.25
2022-08-12T17:26:33.790Z,100503.06
2022-08-12T17:29:00.490Z,100501.22
2022-08-12T17:31:59.776Z,100501.06
2022-08-12T17:34:36.389Z,100502.28
2022-08-12T17:37:06.294Z,100500.63
2022-08-12T17:40:06.650Z,100516.94
2022-08-12T17:42:31.182Z,100510.50
2022-08-12T17:45:01.929Z,100506.66
2022-08-12T17:48:04.922Z,100511.97
2022-08-12T17:50:38.728Z,100507.84
2022-08-12T17:53:08.190Z,100516.28
2022-08-12T17:55:47.489Z,100517.09
2022-08-12T17:58:37.097Z,100515.97
2022-08-12T18:01:05.946Z,100515.22
2022-08-12T18:03:57.504Z,100521.59
2022-08-12T18:06:28.017Z,100524.84
2022-08-12T18:08:58.864Z,100527.28
2022-08-12T18:12:03.748Z,100526.06
2022-08-12T18:14:32.743Z,100529.31
2022-08-12T18:17:08.343Z,100528.50
2022-08-12T18:20:06.468Z,100526.91
2022-08-12T18:22:39.434Z,100532.16
2022-08-12T18:26:15.906Z,100531.63
2022-08-12T18:28:15.607Z,100535.66
2022-08-12T18:30:53.322Z,100536.63
2022-08-12T18:33:25.054Z,100535.50
2022-08-12T18:35:55.631Z,100534.03
2022-08-12T18:38:25.263Z,100534.97
2022-08-12T18:41:21.333Z,100536.09
2022-08-12T18:44:02.521Z,100546.78
2022-08-12T18:46:54.452Z,100541.56
2022-08-12T18:49:30.761Z,100542.03
2022-08-12T18:52:04.872Z,100542.47
2022-08-12T18:54:37.470Z,100550.13
2022-08-12T18:57:19.441Z,100552.50
2022-08-12T19:00:01.712Z,100552.22
2022-08-12T19:02:33.950Z,100550.72
2022-08-12T19:05:09.961Z,100550.81
2022-08-12T19:07:50.049Z,100554.13
2022-08-12T19:10:28.576Z,100548.63
2022-08-12T19:13:21.107Z,100558.16
2022-08-12T19:15:53.357Z,100557.25
2022-08-12T19:18:22.134Z,100561.59
2022-08-12T19:20:50.593Z,100560.91
2022-08-12T19:23:21.297Z,100562.28
2022-08-12T19:26:01.134Z,100559.03
2022-08-12T19:28:35.573Z,100558.72
2022-08-12T19:31:57.822Z,100556.81
2022-08-12T19:38:03.715Z,100557.94
2022-08-12T19:40:32.743Z,100566.34
2022-08-12T19:43:13.286Z,100568.16
2022-08-12T19:45:51.449Z,100565.06
2022-08-12T19:48:20.211Z,100570.16
2022-08-12T19:50:50.649Z,100566.66
2022-08-12T19:53:23.966Z,100566.66
2022-08-12T19:55:53.093Z,100564.94
2022-08-12T19:58:21.178Z,100567.88
2022-08-12T20:00:53.256Z,100567.47
2022-08-12T20:03:37.880Z,100567.41
2022-08-12T20:06:16.029Z,100567.81
2022-08-12T20:08:56.752Z,100568.78
2022-08-12T20:12:13.982Z,100566.34
2022-08-12T20:14:19.846Z,100573.81
2022-08-12T20:16:54.296Z,100578.13
2022-08-12T20:20:02.729Z,100575.03
2022-08-12T20:22:24.583Z,100577.41
2022-08-12T20:25:01.260Z,100567.41
2022-08-12T20:28:03.075Z,100573.72
2022-08-12T20:30:17.777Z,100574.25
2022-08-12T20:32:55.996Z,100580.16
2022-08-12T20:35:24.426Z,100583.03
2022-08-12T20:38:06.812Z,100581.78
2022-08-12T20:40:39.127Z,100581.63
2022-08-12T20:43:06.588Z,100585.94
2022-08-12T20:45:51.231Z,100582.66
2022-08-12T20:48:24.185Z,100584.97
2022-08-12T20:50:53.895Z,100586.44
2022-08-12T20:53:33.195Z,100585.72
2022-08-12T20:56:30.964Z,100588.00
2022-08-12T20:59:01.162Z,100594.97
2022-08-12T21:01:36.618Z,100591.69
2022-08-12T21:04:32.640Z,100591.44
2022-08-12T21:07:04.664Z,100594.81
2022-08-12T21:09:40.622Z,100604.25
2022-08-12T21:12:28.108Z,100597.41
2022-08-12T21:15:00.774Z,100589.00
2022-08-12T21:18:09.420Z,100597.66
2022-08-12T21:20:32.685Z,100590.38
2022-08-12T21:22:59.459Z,100586.00
2022-08-12T21:25:44.526Z,100598.81
2022-08-12T21:28:12.549Z,100603.13
2022-08-12T21:31:11.007Z,100595.53
2022-08-12T21:33:58.688Z,100593.91
2022-08-12T21:36:34.973Z,100595.84
2022-08-12T21:39:18.814Z,100592.81
2022-08-12T21:41:54.913Z,100595.25
2022-08-12T21:45:46.408Z,100594.47
2022-08-12T21:47:23.031Z,100603.72
2022-08-12T21:50:03.728Z,100602.59
2022-08-12T21:52:59.410Z,100602.66
2022-08-12T21:55:46.793Z,100598.28
2022-08-12T21:58:21.165Z,100605.31
2022-08-12T22:00:53.114Z,100611.91
2022-08-12T22:07:18.786Z,100609.19
2022-08-12T22:09:57.333Z,100609.44
2022-08-12T22:12:45.648Z,100606.47
2022-08-12T22:15:21.462Z,100614.34
2022-08-12T22:17:57.622Z,100621.97
2022-08-12T22:20:29.729Z,100613.78
2022-08-12T22:23:21.719Z,100608.59
2022-08-12T22:26:08.927Z,100607.81
2022-08-12T22:29:29.978Z,100613.56
2022-08-12T22:31:57.977Z,100609.13
2022-08-12T22:34:34.372Z,100602.06
2022-08-12T22:37:20.196Z,100608.66
2022-08-12T22:46:34.996Z,100599.34
2022-08-12T22:49:06.552Z,100598.78
2022-08-12T22:52:00.025Z,100599.66
2022-08-12T22:54:35.867Z,100605.34
2022-08-12T22:57:04.645Z,100594.19
2022-08-12T22:59:55.171Z,100597.16
2022-08-12T23:02:29.027Z,100592.78
2022-08-12T23:05:06.026Z,100593.06
2022-08-12T23:08:04.371Z,100597.72
2022-08-12T23:10:31.267Z,100584.63
2022-08-12T23:13:18.591Z,100591.72
2022-08-12T23:15:47.814Z,100588.97
2022-08-12T23:18:23.635Z,100591.72
2022-08-12T23:21:07.685Z,100592.00
2022-08-12T23:24:09.300Z,100588.47
2022-08-12T23:26:57.238Z,100593.38
2022-08-12T23:29:42.907Z,100590.09
2022-08-12T23:32:10.913Z,100596.84
2022-08-12T23:34:37.732Z,100599.09
2022-08-12T23:37:08.494Z,100601.94
2022-08-12T23:40:14.951Z,100591.72
2022-08-12T23:42:41.422Z,100594.16
2022-08-12T23:45:31.509Z,100591.44
2022-08-12T23:48:07.328Z,100592.44
2022-08-12T23:50:35.082Z,100586.75
2022-08-12T23:53:22.420Z,100600.06
2022-08-12T23:55:49.957Z,100592.16
2022-08-12T23:58:26.188Z,100591.00
